createdAt,value
2022-11-22T00:02:05.000Z,276.34
2022-11-22T00:04:56.000Z,276.4
2022-11-22T00:06:23.000Z,276.4
2022-11-22T00:08:29.000Z,276.34
2022-11-22T00:09:55.000Z,276.34
2022-11-22T00:12:01.000Z,276.34
2022-11-22T00:13:28.000Z,276.4
2022-11-22T00:15:34.000Z,276.4
2022-11-22T00:17:00.000Z,276.4
2022-11-22T00:19:07.000Z,276.4
2022-11-22T00:20:33.000Z,276.4
2022-11-22T00:22:39.000Z,276.46
2022-11-22T00:24:09.000Z,276.4
2022-11-22T00:26:15.000Z,276.4
2022-11-22T00:27:42.000Z,276.46
2022-11-22T00:29:48.000Z,276.46
2022-11-22T00:31:14.000Z,276.4
2022-11-22T00:33:21.000Z,276.46
2022-11-22T00:34:47.000Z,276.46
2022-11-22T00:36:53.000Z,276.46
2022-11-22T00:38:20.000Z,276.46
2022-11-22T00:40:26.000Z,276.4
2022-11-22T00:43:17.000Z,276.4
2022-11-22T00:44:43.000Z,276.46
2022-11-22T00:46:49.000Z,276.4
2022-11-22T00:48:16.000Z,276.46
2022-11-22T00:50:22.000Z,276.46
2022-11-22T00:51:49.000Z,276.46
2022-11-22T00:53:55.000Z,276.46
2022-11-22T00:55:21.000Z,276.46
2022-11-22T00:57:27.000Z,276.46
2022-11-22T00:58:54.000Z,276.46
2022-11-22T01:01:00.000Z,276.46
2022-11-22T01:02:26.000Z,276.52
2022-11-22T01:04:33.000Z,276.46
2022-11-22T01:05:59.000Z,276.52
2022-11-22T01:08:05.000Z,276.52
2022-11-22T01:09:32.000Z,276.52
2022-11-22T01:11:38.000Z,276.52
2022-11-22T01:13:04.000Z,276.46
2022-11-22T01:15:10.000Z,276.52
2022-11-22T01:16:37.000Z,276.46
2022-11-22T01:18:43.000Z,276.46
2022-11-22T01:21:34.000Z,276.52
2022-11-22T01:23:00.000Z,276.52
2022-11-22T01:25:07.000Z,276.52
2022-11-22T01:26:33.000Z,276.52
2022-11-22T01:28:39.000Z,276.52
2022-11-22T01:30:06.000Z,276.59
2022-11-22T01:32:12.000Z,276.52
2022-11-22T01:33:38.000Z,276.52
2022-11-22T01:35:44.000Z,276.52
2022-11-22T01:37:11.000Z,276.52
2022-11-22T01:39:17.000Z,276.59
2022-11-22T01:40:43.000Z,276.52
2022-11-22T01:42:49.000Z,276.59
2022-11-22T01:44:16.000Z,276.59
2022-11-22T01:46:22.000Z,276.59
2022-11-22T01:47:49.000Z,276.52
2022-11-22T01:49:55.000Z,276.59
2022-11-22T01:51:21.000Z,276.59
2022-11-22T01:53:27.000Z,276.59
2022-11-22T01:54:54.000Z,276.59
2022-11-22T01:57:00.000Z,276.59
2022-11-22T01:59:51.000Z,276.59
2022-11-22T02:01:18.000Z,276.52
2022-11-22T02:03:24.000Z,276.52
2022-11-22T02:04:50.000Z,276.59
2022-11-22T02:06:57.000Z,276.52
2022-11-22T02:08:23.000Z,276.59
2022-11-22T02:10:29.000Z,276.52
2022-11-22T02:11:56.000Z,276.52
2022-11-22T02:14:02.000Z,276.59
2022-11-22T02:15:28.000Z,276.59
2022-11-22T02:17:34.000Z,276.59
2022-11-22T02:19:01.000Z,276.59
2022-11-22T02:21:07.000Z,276.59
2022-11-22T02:22:33.000Z,276.59
2022-11-22T02:24:40.000Z,276.59
2022-11-22T02:26:06.000Z,276.65
2022-11-22T02:28:12.000Z,276.59
2022-11-22T02:29:39.000Z,276.65
2022-11-22T02:31:45.000Z,276.65
2022-11-22T02:33:11.000Z,276.65
2022-11-22T02:35:18.000Z,276.65
2022-11-22T02:38:09.000Z,276.65
2022-11-22T02:39:35.000Z,276.71
2022-11-22T02:41:41.000Z,276.65
2022-11-22T02:43:08.000Z,276.71
2022-11-22T02:45:14.000Z,276.71
2022-11-22T02:46:41.000Z,276.71
2022-11-22T02:48:47.000Z,276.65
2022-11-22T02:50:13.000Z,276.71
2022-11-22T02:52:19.000Z,276.65
2022-11-22T02:53:46.000Z,276.65
2022-11-22T02:55:52.000Z,276.71
2022-11-22T02:57:18.000Z,276.71
2022-11-22T02:59:24.000Z,276.71
2022-11-22T03:00:52.000Z,276.71
2022-11-22T03:02:58.000Z,276.71
2022-11-22T03:04:24.000Z,276.71
2022-11-22T03:06:31.000Z,276.71
2022-11-22T03:07:57.000Z,276.65
2022-11-22T03:10:03.000Z,276.71
2022-11-22T03:11:30.000Z,276.71
2022-11-22T03:13:36.000Z,276.65
2022-11-22T03:16:27.000Z,276.71
2022-11-22T03:17:53.000Z,276.77
2022-11-22T03:20:00.000Z,276.77
2022-11-22T03:21:26.000Z,276.77
2022-11-22T03:23:32.000Z,276.71
2022-11-22T03:24:59.000Z,276.71
2022-11-22T03:27:05.000Z,276.65
2022-11-22T03:28:31.000Z,276.71
2022-11-22T03:30:38.000Z,276.65
2022-11-22T03:32:04.000Z,276.71
2022-11-22T03:34:10.000Z,276.71
2022-11-22T03:35:37.000Z,276.71
2022-11-22T03:37:43.000Z,276.65
2022-11-22T03:39:09.000Z,276.65
2022-11-22T03:41:15.000Z,276.65
2022-11-22T03:42:42.000Z,276.65
2022-11-22T03:44:48.000Z,276.71
2022-11-22T03:46:14.000Z,276.65
2022-11-22T03:48:21.000Z,276.65
2022-11-22T03:49:47.000Z,276.65
2022-11-22T03:51:53.000Z,276.65
2022-11-22T03:54:45.000Z,276.71
2022-11-22T03:56:11.000Z,276.65
2022-11-22T03:58:17.000Z,276.71
2022-11-22T03:59:44.000Z,276.71
2022-11-22T04:01:50.000Z,276.65
2022-11-22T04:03:16.000Z,276.65
2022-11-22T04:05:22.000Z,276.71
2022-11-22T04:06:49.000Z,276.65
2022-11-22T04:08:55.000Z,276.71
2022-11-22T04:10:22.000Z,276.71
2022-11-22T04:12:28.000Z,276.77
2022-11-22T04:13:54.000Z,276.71
2022-11-22T04:16:00.000Z,276.77
2022-11-22T04:17:27.000Z,276.77
2022-11-22T04:19:33.000Z,276.77
2022-11-22T04:21:00.000Z,276.77
2022-11-22T04:23:06.000Z,276.77
2022-11-22T04:24:32.000Z,276.77
2022-11-22T04:26:38.000Z,276.77
2022-11-22T04:28:05.000Z,276.84
2022-11-22T04:30:11.000Z,276.77
2022-11-22T04:33:09.000Z,276.84
2022-11-22T04:34:36.000Z,276.9
2022-11-22T04:36:42.000Z,276.9
2022-11-22T04:38:08.000Z,276.9
2022-11-22T04:40:14.000Z,276.84
2022-11-22T04:41:41.000Z,276.9
2022-11-22T04:43:47.000Z,276.9
2022-11-22T04:45:13.000Z,276.9
2022-11-22T04:47:19.000Z,276.96
2022-11-22T04:48:46.000Z,276.9
2022-11-22T04:50:52.000Z,276.9
2022-11-22T04:52:19.000Z,276.96
2022-11-22T04:54:25.000Z,277.02
2022-11-22T04:55:51.000Z,277.15
2022-11-22T04:57:57.000Z,277.21
2022-11-22T04:59:25.000Z,277.15
2022-11-22T05:01:31.000Z,277.02
2022-11-22T05:02:58.000Z,277.02
2022-11-22T05:05:04.000Z,277.02
2022-11-22T05:06:30.000Z,277.02
2022-11-22T05:08:36.000Z,277.02
2022-11-22T05:11:27.000Z,277.02
2022-11-22T05:12:54.000Z,277.09
2022-11-22T05:15:00.000Z,277.15
2022-11-22T05:16:26.000Z,277.15
2022-11-22T05:18:33.000Z,277.09
2022-11-22T05:19:59.000Z,277.02
2022-11-22T05:22:05.000Z,277.09
2022-11-22T05:23:32.000Z,277.09
2022-11-22T05:25:38.000Z,277.09
2022-11-22T05:27:04.000Z,277.09
2022-11-22T05:29:10.000Z,277.09
2022-11-22T05:30:37.000Z,277.09
2022-11-22T05:32:43.000Z,277.09
2022-11-22T05:34:09.000Z,277.09
2022-11-22T05:36:15.000Z,277.09
2022-11-22T05:37:42.000Z,277.09
2022-11-22T05:39:48.000Z,277.09
2022-11-22T05:41:14.000Z,277.09
2022-11-22T05:43:21.000Z,277.15
2022-11-22T05:44:47.000Z,277.09
2022-11-22T05:46:53.000Z,277.02
2022-11-22T05:49:44.000Z,277.02
2022-11-22T05:51:11.000Z,277.09
2022-11-22T05:53:17.000Z,277.09
2022-11-22T05:54:43.000Z,277.02
2022-11-22T05:56:49.000Z,277.02
2022-11-22T05:58:16.000Z,277.02
2022-11-22T06:00:22.000Z,277.09
2022-11-22T06:01:49.000Z,277.02
2022-11-22T06:03:55.000Z,277.02
2022-11-22T06:05:21.000Z,277.02
2022-11-22T06:07:27.000Z,277.02
2022-11-22T06:08:54.000Z,277.02
2022-11-22T06:11:00.000Z,277.09
2022-11-22T06:12:26.000Z,277.02
2022-11-22T06:14:32.000Z,277.09
2022-11-22T06:16:07.000Z,277.02
2022-11-22T06:18:13.000Z,277.02
2022-11-22T06:19:39.000Z,277.02
2022-11-22T06:21:45.000Z,276.96
2022-11-22T06:23:12.000Z,276.96
2022-11-22T06:25:18.000Z,277.02
2022-11-22T06:28:09.000Z,276.96
2022-11-22T06:29:35.000Z,277.02
2022-11-22T06:31:42.000Z,276.96
2022-11-22T06:33:08.000Z,276.96
2022-11-22T06:35:14.000Z,276.96
2022-11-22T06:36:41.000Z,276.96
2022-11-22T06:38:47.000Z,276.96
2022-11-22T06:40:13.000Z,276.9
2022-11-22T06:42:19.000Z,276.9
2022-11-22T06:43:46.000Z,276.9
2022-11-22T06:45:53.000Z,276.9
2022-11-22T06:47:20.000Z,276.9
2022-11-22T06:49:26.000Z,276.9
2022-11-22T06:50:53.000Z,276.84
2022-11-22T06:52:59.000Z,276.84
2022-11-22T06:54:26.000Z,276.84
2022-11-22T06:56:32.000Z,276.84
2022-11-22T06:57:58.000Z,276.84
2022-11-22T07:00:05.000Z,276.77
2022-11-22T07:01:31.000Z,276.77
2022-11-22T07:03:37.000Z,276.77
2022-11-22T07:06:29.000Z,276.71
2022-11-22T07:07:55.000Z,276.71
2022-11-22T07:10:10.000Z,276.71
2022-11-22T07:11:37.000Z,276.65
2022-11-22T07:13:43.000Z,276.65
2022-11-22T07:15:09.000Z,276.65
2022-11-22T07:17:15.000Z,276.65
2022-11-22T07:18:42.000Z,276.65
2022-11-22T07:20:48.000Z,276.65
2022-11-22T07:22:15.000Z,276.71
2022-11-22T07:24:21.000Z,276.65
2022-11-22T07:25:47.000Z,276.71
2022-11-22T07:27:54.000Z,276.71
2022-11-22T07:29:20.000Z,276.77
2022-11-22T07:31:26.000Z,276.77
2022-11-22T07:32:53.000Z,276.77
2022-11-22T07:34:59.000Z,276.77
2022-11-22T07:36:25.000Z,276.77
2022-11-22T07:38:31.000Z,276.77
2022-11-22T07:39:58.000Z,276.77
2022-11-22T07:42:04.000Z,276.77
2022-11-22T07:44:55.000Z,276.84
2022-11-22T07:46:22.000Z,276.84
2022-11-22T07:48:28.000Z,276.9
2022-11-22T07:49:54.000Z,276.9
2022-11-22T07:52:00.000Z,276.96
2022-11-22T07:53:27.000Z,276.96
2022-11-22T07:55:33.000Z,276.96
2022-11-22T07:56:59.000Z,277.02
2022-11-22T07:59:06.000Z,277.02
2022-11-22T08:00:32.000Z,277.02
2022-11-22T08:02:38.000Z,277.09
2022-11-22T08:04:05.000Z,277.09
2022-11-22T08:06:11.000Z,277.09
2022-11-22T08:07:37.000Z,277.21
2022-11-22T08:09:44.000Z,277.27
2022-11-22T08:11:10.000Z,277.4
2022-11-22T08:13:16.000Z,277.34
2022-11-22T08:14:43.000Z,277.34
2022-11-22T08:16:49.000Z,277.4
2022-11-22T08:18:15.000Z,277.52
2022-11-22T08:20:22.000Z,277.46
2022-11-22T08:23:13.000Z,277.59
2022-11-22T08:24:39.000Z,277.59
2022-11-22T08:26:45.000Z,277.46
2022-11-22T08:28:12.000Z,277.59
2022-11-22T08:30:18.000Z,277.71
2022-11-22T08:31:45.000Z,277.71
2022-11-22T08:33:51.000Z,277.9
2022-11-22T08:35:17.000Z,277.84
2022-11-22T08:37:23.000Z,277.9
2022-11-22T08:38:50.000Z,277.96
2022-11-22T08:40:56.000Z,277.96
2022-11-22T08:42:22.000Z,277.96
2022-11-22T08:44:29.000Z,278.09
2022-11-22T08:45:55.000Z,278.15
2022-11-22T08:48:01.000Z,278.15
2022-11-22T08:49:28.000Z,278.21
2022-11-22T08:51:34.000Z,278.21
2022-11-22T08:53:01.000Z,278.27
2022-11-22T08:55:07.000Z,278.34
2022-11-22T08:56:33.000Z,278.34
2022-11-22T08:58:39.000Z,278.46
2022-11-22T09:01:31.000Z,278.46
2022-11-22T09:02:57.000Z,278.46
2022-11-22T09:05:03.000Z,278.46
2022-11-22T09:09:06.000Z,278.46
2022-11-22T09:11:00.000Z,278.46
2022-11-22T09:13:06.000Z,278.52
2022-11-22T09:14:33.000Z,278.59
2022-11-22T09:16:39.000Z,278.59
2022-11-22T09:18:05.000Z,278.59
2022-11-22T09:20:11.000Z,278.52
2022-11-22T09:21:38.000Z,278.59
2022-11-22T09:23:44.000Z,278.52
2022-11-22T09:25:11.000Z,278.65
2022-11-22T09:27:17.000Z,278.65
2022-11-22T09:28:43.000Z,278.65
2022-11-22T09:30:49.000Z,278.71
2022-11-22T09:32:16.000Z,278.65
2022-11-22T09:34:22.000Z,278.77
2022-11-22T09:35:48.000Z,278.77
2022-11-22T09:37:54.000Z,278.71
2022-11-22T09:40:45.000Z,278.77
2022-11-22T09:42:12.000Z,278.77
2022-11-22T09:44:18.000Z,278.84
2022-11-22T09:45:44.000Z,278.9
2022-11-22T09:47:51.000Z,278.84
2022-11-22T09:49:17.000Z,278.84
2022-11-22T09:51:23.000Z,278.9
2022-11-22T09:52:50.000Z,278.9
2022-11-22T09:54:56.000Z,278.9
2022-11-22T09:56:22.000Z,278.84
2022-11-22T09:58:28.000Z,278.9
2022-11-22T09:59:55.000Z,278.96
2022-11-22T10:02:01.000Z,278.96
2022-11-22T10:03:42.000Z,278.96
2022-11-22T10:05:48.000Z,279.02
2022-11-22T10:07:15.000Z,279.02
2022-11-22T10:09:21.000Z,279.02
2022-11-22T10:10:48.000Z,279.02
2022-11-22T10:12:54.000Z,279.09
2022-11-22T10:14:20.000Z,279.09
2022-11-22T10:16:27.000Z,279.09
2022-11-22T10:19:18.000Z,279.09
2022-11-22T10:20:44.000Z,279.15
2022-11-22T10:22:53.000Z,279.15
2022-11-22T10:24:19.000Z,279.21
2022-11-22T10:26:25.000Z,279.21
2022-11-22T10:27:52.000Z,279.21
2022-11-22T10:30:04.000Z,279.27
2022-11-22T10:31:30.000Z,279.27
2022-11-22T10:33:36.000Z,279.27
2022-11-22T10:35:09.000Z,279.27
2022-11-22T10:37:15.000Z,279.27
2022-11-22T10:38:41.000Z,279.27
2022-11-22T10:40:48.000Z,279.27
2022-11-22T10:42:14.000Z,279.27
2022-11-22T10:44:20.000Z,279.21
2022-11-22T10:45:47.000Z,279.21
2022-11-22T10:47:53.000Z,279.21
2022-11-22T10:49:19.000Z,279.21
2022-11-22T10:51:25.000Z,279.21
2022-11-22T10:52:52.000Z,279.27
2022-11-22T10:54:58.000Z,279.27
2022-11-22T10:57:49.000Z,279.27
2022-11-22T10:59:16.000Z,279.27
2022-11-22T11:01:22.000Z,279.27
2022-11-22T11:02:48.000Z,279.27
2022-11-22T11:04:54.000Z,279.27
2022-11-22T11:06:21.000Z,279.27
2022-11-22T11:08:47.000Z,279.27
2022-11-22T11:11:12.000Z,279.34
2022-11-22T11:13:18.000Z,279.34
2022-11-22T11:14:45.000Z,279.4
2022-11-22T11:16:51.000Z,279.4
2022-11-22T11:18:18.000Z,279.4
2022-11-22T11:20:24.000Z,279.4
2022-11-22T11:21:50.000Z,279.4
2022-11-22T11:23:56.000Z,279.4
2022-11-22T11:25:23.000Z,279.4
2022-11-22T11:27:29.000Z,279.34
2022-11-22T11:28:55.000Z,279.34
2022-11-22T11:31:02.000Z,279.34
2022-11-22T11:32:28.000Z,279.34
2022-11-22T11:34:34.000Z,279.34
2022-11-22T11:37:25.000Z,279.34
2022-11-22T11:38:52.000Z,279.4
2022-11-22T11:40:58.000Z,279.34
2022-11-22T11:42:25.000Z,279.34
2022-11-22T11:44:31.000Z,279.34
2022-11-22T11:45:58.000Z,279.34
2022-11-22T11:48:04.000Z,279.34
2022-11-22T11:49:30.000Z,279.34
2022-11-22T11:51:37.000Z,279.34
2022-11-22T11:53:03.000Z,279.4
2022-11-22T11:55:09.000Z,279.4
2022-11-22T11:56:36.000Z,279.4
2022-11-22T11:58:42.000Z,279.46
2022-11-22T12:00:09.000Z,279.46
2022-11-22T12:02:15.000Z,279.46
2022-11-22T12:03:41.000Z,279.46
2022-11-22T12:05:47.000Z,279.4
2022-11-22T12:07:14.000Z,279.46
2022-11-22T12:09:20.000Z,279.46
2022-11-22T12:10:47.000Z,279.46
2022-11-22T12:12:53.000Z,279.46
2022-11-22T12:15:48.000Z,279.46
2022-11-22T12:17:15.000Z,279.46
2022-11-22T12:19:21.000Z,279.46
2022-11-22T12:20:49.000Z,279.4
2022-11-22T12:22:55.000Z,279.4
2022-11-22T12:24:22.000Z,279.4
2022-11-22T12:26:56.000Z,279.34
2022-11-22T12:28:23.000Z,279.34
2022-11-22T12:30:29.000Z,279.34
2022-11-22T12:31:55.000Z,279.34
2022-11-22T12:34:01.000Z,279.34
2022-11-22T12:35:28.000Z,279.4
2022-11-22T12:37:34.000Z,279.34
2022-11-22T12:39:00.000Z,279.4
2022-11-22T12:41:06.000Z,279.4
2022-11-22T12:42:33.000Z,279.4
2022-11-22T12:44:39.000Z,279.4
2022-11-22T12:46:06.000Z,279.4
2022-11-22T12:48:12.000Z,279.46
2022-11-22T12:49:38.000Z,279.46
2022-11-22T12:51:44.000Z,279.46
2022-11-22T12:54:36.000Z,279.46
2022-11-22T12:56:02.000Z,279.52
2022-11-22T12:58:08.000Z,279.46
2022-11-22T12:59:35.000Z,279.46
2022-11-22T13:01:41.000Z,279.4
2022-11-22T13:03:07.000Z,279.4
2022-11-22T13:05:14.000Z,279.4
2022-11-22T13:06:40.000Z,279.4
2022-11-22T13:08:46.000Z,279.34
2022-11-22T13:10:19.000Z,279.34
2022-11-22T13:12:25.000Z,279.34
2022-11-22T13:13:51.000Z,279.34
2022-11-22T13:15:57.000Z,279.27
2022-11-22T13:17:24.000Z,279.27
2022-11-22T13:19:30.000Z,279.27
2022-11-22T13:20:56.000Z,279.34
2022-11-22T13:23:03.000Z,279.34
2022-11-22T13:24:29.000Z,279.34
2022-11-22T13:26:36.000Z,279.34
2022-11-22T13:28:02.000Z,279.34
2022-11-22T13:30:08.000Z,279.34
2022-11-22T13:32:59.000Z,279.34
2022-11-22T13:34:26.000Z,279.27
2022-11-22T13:36:33.000Z,279.27
2022-11-22T13:37:59.000Z,279.34
2022-11-22T13:40:05.000Z,279.27
2022-11-22T13:41:32.000Z,279.27
2022-11-22T13:43:38.000Z,279.27
2022-11-22T13:45:04.000Z,279.34
2022-11-22T13:47:10.000Z,279.34
2022-11-22T13:48:37.000Z,279.27
2022-11-22T13:50:43.000Z,279.34
2022-11-22T13:52:09.000Z,279.27
2022-11-22T13:54:16.000Z,279.27
2022-11-22T13:55:42.000Z,279.27
2022-11-22T13:57:48.000Z,279.27
2022-11-22T13:59:15.000Z,279.21
2022-11-22T14:01:21.000Z,279.21
2022-11-22T14:02:47.000Z,279.27
2022-11-22T14:04:54.000Z,279.27
2022-11-22T14:06:20.000Z,279.27
2022-11-22T14:08:26.000Z,279.27
2022-11-22T14:11:17.000Z,279.27
2022-11-22T14:12:44.000Z,279.27
2022-11-22T14:14:50.000Z,279.21
2022-11-22T14:16:17.000Z,279.27
2022-11-22T14:18:23.000Z,279.21
2022-11-22T14:19:49.000Z,279.21
2022-11-22T14:21:55.000Z,279.21
2022-11-22T14:23:22.000Z,279.21
2022-11-22T14:25:28.000Z,279.21
2022-11-22T14:26:55.000Z,279.21
2022-11-22T14:29:01.000Z,279.21
2022-11-22T14:30:27.000Z,279.21
2022-11-22T14:32:33.000Z,279.21
2022-11-22T14:34:00.000Z,279.21
2022-11-22T14:36:06.000Z,279.15
2022-11-22T14:37:33.000Z,279.15
2022-11-22T14:39:39.000Z,279.15
2022-11-22T14:41:05.000Z,279.15
2022-11-22T14:43:11.000Z,279.09
2022-11-22T14:44:38.000Z,279.15
2022-11-22T14:46:44.000Z,279.09
2022-11-22T14:49:43.000Z,279.09
2022-11-22T14:51:09.000Z,279.09
2022-11-22T14:53:15.000Z,279.09
2022-11-22T14:54:42.000Z,279.09
2022-11-22T14:56:48.000Z,279.09
2022-11-22T14:58:14.000Z,279.09
2022-11-22T15:00:20.000Z,279.09
2022-11-22T15:01:47.000Z,279.02
2022-11-22T15:03:53.000Z,279.02
2022-11-22T15:10:55.000Z,279.02
2022-11-22T15:13:02.000Z,279.02
2022-11-22T15:14:28.000Z,278.96
2022-11-22T15:58:31.000Z,278.71
2022-11-22T16:00:38.000Z,278.71
2022-11-22T16:02:04.000Z,278.71
2022-11-22T16:04:10.000Z,278.71
2022-11-22T16:05:37.000Z,278.65
2022-11-22T16:08:15.000Z,278.65
2022-11-22T16:09:42.000Z,278.65
2022-11-22T16:11:48.000Z,278.65
2022-11-22T16:14:39.000Z,278.65
2022-11-22T16:16:05.000Z,278.65
2022-11-22T16:18:12.000Z,278.65
2022-11-22T16:19:38.000Z,278.65
2022-11-22T16:21:44.000Z,278.59
2022-11-22T16:23:11.000Z,278.59
2022-11-22T16:25:17.000Z,278.59
2022-11-22T16:26:43.000Z,278.59
2022-11-22T16:28:49.000Z,278.59
2022-11-22T16:30:16.000Z,278.59
2022-11-22T16:32:27.000Z,278.59
2022-11-22T16:33:54.000Z,278.59
2022-11-22T16:36:00.000Z,278.59
2022-11-22T16:37:26.000Z,278.59
2022-11-22T16:39:41.000Z,278.52
2022-11-22T16:41:08.000Z,278.52
2022-11-22T16:43:14.000Z,278.52
2022-11-22T16:44:41.000Z,278.52
2022-11-22T16:46:47.000Z,278.52
2022-11-22T16:48:13.000Z,278.52
2022-11-22T16:50:35.000Z,278.46
2022-11-22T16:53:26.000Z,278.46
2022-11-22T16:54:53.000Z,278.46
2022-11-22T16:56:59.000Z,278.46
2022-11-22T16:58:25.000Z,278.46
2022-11-22T17:00:32.000Z,278.46
2022-11-22T17:01:58.000Z,278.46
2022-11-22T17:04:04.000Z,278.46
2022-11-22T17:05:31.000Z,278.4
2022-11-22T17:07:37.000Z,278.4
2022-11-22T17:09:04.000Z,278.4
2022-11-22T17:11:10.000Z,278.4
2022-11-22T17:12:36.000Z,278.4
2022-11-22T17:14:42.000Z,278.4
2022-11-22T17:16:09.000Z,278.4
2022-11-22T17:18:15.000Z,278.4
2022-11-22T17:19:41.000Z,278.4
2022-11-22T17:21:57.000Z,278.4
2022-11-22T17:23:24.000Z,278.34
2022-11-22T17:25:30.000Z,278.34
2022-11-22T17:26:57.000Z,278.34
2022-11-22T17:29:03.000Z,278.34
2022-11-22T17:32:00.000Z,278.34
2022-11-22T17:33:27.000Z,278.34
2022-11-22T17:35:33.000Z,278.34
2022-11-22T17:37:01.000Z,278.34
2022-11-22T17:39:07.000Z,278.34
2022-11-22T17:40:34.000Z,278.34
2022-11-22T17:42:40.000Z,278.4
2022-11-22T17:44:06.000Z,278.4
2022-11-22T17:46:13.000Z,278.4
2022-11-22T17:47:39.000Z,278.34
2022-11-22T17:49:45.000Z,278.4
2022-11-22T17:51:12.000Z,278.34
2022-11-22T17:53:18.000Z,278.34
2022-11-22T17:54:44.000Z,278.34
2022-11-22T17:56:50.000Z,278.34
2022-11-22T17:58:17.000Z,278.4
2022-11-22T18:00:23.000Z,278.4
2022-11-22T18:01:54.000Z,278.4
2022-11-22T18:04:00.000Z,278.4
2022-11-22T18:05:27.000Z,278.4
2022-11-22T18:07:33.000Z,278.4
2022-11-22T18:10:25.000Z,278.4
2022-11-22T18:11:51.000Z,278.4
2022-11-22T18:13:57.000Z,278.4
2022-11-22T18:15:24.000Z,278.4
2022-11-22T18:17:30.000Z,278.4
2022-11-22T18:18:56.000Z,278.4
2022-11-22T18:21:03.000Z,278.34
2022-11-22T18:22:29.000Z,278.4
2022-11-22T18:24:35.000Z,278.34
2022-11-22T18:26:02.000Z,278.4
2022-11-22T18:28:43.000Z,278.4
2022-11-22T18:30:41.000Z,278.4
2022-11-22T18:32:48.000Z,278.4
2022-11-22T18:34:14.000Z,278.4
2022-11-22T18:36:20.000Z,278.4
2022-11-22T18:38:18.000Z,278.4
2022-11-22T18:40:25.000Z,278.4
2022-11-22T18:41:51.000Z,278.4
2022-11-22T18:43:57.000Z,278.34
2022-11-22T18:45:24.000Z,278.34
2022-11-22T18:47:30.000Z,278.34
2022-11-22T18:50:21.000Z,278.34
2022-11-22T18:51:48.000Z,278.4
2022-11-22T18:53:54.000Z,278.46
2022-11-22T18:55:20.000Z,278.46
2022-11-22T18:57:26.000Z,278.46
2022-11-22T18:58:53.000Z,278.4
2022-11-22T19:00:59.000Z,278.46
2022-11-22T19:02:25.000Z,278.52
2022-11-22T19:04:32.000Z,278.46
2022-11-22T19:05:58.000Z,278.46
2022-11-22T19:08:05.000Z,278.46
2022-11-22T19:09:31.000Z,278.52
2022-11-22T19:11:37.000Z,278.52
2022-11-22T19:13:04.000Z,278.52
2022-11-22T19:15:10.000Z,278.59
2022-11-22T19:16:36.000Z,278.59
2022-11-22T19:18:42.000Z,278.59
2022-11-22T19:20:09.000Z,278.59
2022-11-22T19:22:51.000Z,278.52
2022-11-22T19:24:18.000Z,278.59
2022-11-22T19:26:24.000Z,278.52
2022-11-22T19:29:15.000Z,278.52
2022-11-22T19:30:42.000Z,278.59
2022-11-22T19:32:48.000Z,278.59
2022-11-22T19:34:15.000Z,278.59
2022-11-22T19:36:21.000Z,278.59
2022-11-22T19:37:55.000Z,278.59
2022-11-22T19:40:01.000Z,278.59
2022-11-22T19:41:27.000Z,278.59
2022-11-22T19:43:33.000Z,278.65
2022-11-22T19:45:00.000Z,278.59
2022-11-22T19:47:06.000Z,278.59
2022-11-22T19:48:33.000Z,278.59
2022-11-22T19:50:39.000Z,278.65
2022-11-22T19:52:05.000Z,278.59
2022-11-22T19:54:11.000Z,278.59
2022-11-22T19:55:38.000Z,278.59
2022-11-22T19:57:49.000Z,278.65
2022-11-22T19:59:16.000Z,278.65
2022-11-22T20:01:22.000Z,278.65
2022-11-22T20:02:49.000Z,278.59
2022-11-22T20:04:55.000Z,278.65
2022-11-22T20:07:46.000Z,278.65
2022-11-22T20:09:12.000Z,278.65
2022-11-22T20:11:19.000Z,278.65
2022-11-22T20:12:45.000Z,278.65
2022-11-22T20:14:51.000Z,278.65
2022-11-22T20:16:18.000Z,278.65
2022-11-22T20:18:24.000Z,278.65
2022-11-22T20:19:50.000Z,278.65
2022-11-22T20:21:56.000Z,278.59
2022-11-22T20:23:23.000Z,278.59
2022-11-22T20:25:29.000Z,278.59
2022-11-22T20:26:56.000Z,278.59
2022-11-22T20:29:02.000Z,278.52
2022-11-22T20:30:28.000Z,278.52
2022-11-22T20:32:34.000Z,278.52
2022-11-22T20:34:01.000Z,278.52
2022-11-22T20:36:07.000Z,278.59
2022-11-22T20:37:33.000Z,278.59
2022-11-22T20:39:39.000Z,278.52
2022-11-22T20:41:06.000Z,278.52
2022-11-22T20:43:12.000Z,278.52
2022-11-22T20:46:03.000Z,278.59
2022-11-22T20:47:30.000Z,278.59
2022-11-22T20:49:36.000Z,278.59
2022-11-22T20:51:09.000Z,278.52
2022-11-22T20:53:15.000Z,278.52
2022-11-22T20:54:42.000Z,278.59
2022-11-22T20:56:48.000Z,278.52
2022-11-22T20:58:15.000Z,278.59
2022-11-22T21:00:21.000Z,278.59
2022-11-22T21:01:47.000Z,278.59
2022-11-22T21:03:53.000Z,278.52
2022-11-22T21:05:20.000Z,278.52
2022-11-22T21:07:26.000Z,278.59
2022-11-22T21:08:53.000Z,278.65
2022-11-22T21:10:59.000Z,278.59
2022-11-22T21:12:25.000Z,278.59
2022-11-22T21:14:32.000Z,278.59
2022-11-22T21:15:58.000Z,278.52
2022-11-22T21:18:04.000Z,278.52
2022-11-22T21:19:50.000Z,278.52
2022-11-22T21:21:56.000Z,278.52
2022-11-22T21:24:47.000Z,278.52
2022-11-22T21:26:13.000Z,278.52
2022-11-22T21:28:20.000Z,278.52
2022-11-22T21:29:46.000Z,278.52
2022-11-22T21:31:52.000Z,278.59
2022-11-22T21:33:19.000Z,278.52
2022-11-22T21:35:25.000Z,278.59
2022-11-22T21:36:51.000Z,278.59
2022-11-22T21:38:57.000Z,278.65
2022-11-22T21:40:24.000Z,278.65
2022-11-22T21:42:30.000Z,278.65
2022-11-22T21:43:57.000Z,278.71
2022-11-22T21:46:03.000Z,278.71
2022-11-22T21:47:29.000Z,278.71
2022-11-22T21:49:35.000Z,278.71
2022-11-22T21:51:02.000Z,278.71
2022-11-22T21:53:08.000Z,278.71
2022-11-22T21:54:34.000Z,278.77
2022-11-22T21:56:40.000Z,278.77
2022-11-22T21:58:07.000Z,278.77
2022-11-22T22:00:13.000Z,278.77
2022-11-22T22:03:04.000Z,278.84
2022-11-22T22:04:31.000Z,278.77
2022-11-22T22:06:37.000Z,278.77
2022-11-22T22:08:10.000Z,278.77
2022-11-22T22:10:16.000Z,278.84
2022-11-22T22:11:43.000Z,278.77
2022-11-22T22:13:49.000Z,278.84
2022-11-22T22:15:15.000Z,278.84
2022-11-22T22:17:21.000Z,278.9
2022-11-22T22:18:48.000Z,278.84
2022-11-22T22:20:54.000Z,278.84
2022-11-22T22:22:20.000Z,278.84
2022-11-22T22:24:26.000Z,278.77
2022-11-22T22:25:53.000Z,278.84
2022-11-22T22:27:59.000Z,278.77
2022-11-22T22:29:25.000Z,278.77
2022-11-22T22:31:31.000Z,278.77
2022-11-22T22:32:58.000Z,278.84
2022-11-22T22:35:04.000Z,278.84
2022-11-22T22:36:31.000Z,278.84
2022-11-22T22:38:37.000Z,278.77
2022-11-22T22:41:28.000Z,278.84
2022-11-22T22:42:55.000Z,278.84
2022-11-22T22:45:01.000Z,278.77
2022-11-22T22:46:27.000Z,278.77
2022-11-22T22:48:33.000Z,278.77
2022-11-22T22:50:00.000Z,278.77
2022-11-22T22:52:06.000Z,278.77
2022-11-22T22:53:33.000Z,278.84
2022-11-22T22:55:39.000Z,278.77
2022-11-22T22:57:05.000Z,278.77
2022-11-22T22:59:11.000Z,278.77
2022-11-22T23:00:38.000Z,278.77
2022-11-22T23:02:44.000Z,278.84
2022-11-22T23:04:10.000Z,278.84
2022-11-22T23:06:17.000Z,278.84
2022-11-22T23:07:43.000Z,278.84
2022-11-22T23:09:49.000Z,278.77
2022-11-22T23:11:16.000Z,278.84
2022-11-22T23:13:22.000Z,278.84
2022-11-22T23:14:48.000Z,278.9
2022-11-22T23:16:55.000Z,278.84
2022-11-22T23:19:47.000Z,278.96
2022-11-22T23:21:13.000Z,279.09
2022-11-22T23:23:20.000Z,278.96
2022-11-22T23:24:46.000Z,278.96
2022-11-22T23:26:52.000Z,278.96
2022-11-22T23:28:19.000Z,278.96
2022-11-22T23:30:25.000Z,278.9
2022-11-22T23:31:51.000Z,278.96
2022-11-22T23:33:57.000Z,278.9
2022-11-22T23:35:24.000Z,278.9
2022-11-22T23:37:30.000Z,278.9
2022-11-22T23:38:56.000Z,278.9
2022-11-22T23:41:03.000Z,278.96
2022-11-22T23:42:29.000Z,278.96
2022-11-22T23:44:35.000Z,279.02
2022-11-22T23:46:02.000Z,278.96
2022-11-22T23:48:08.000Z,278.96
2022-11-22T23:49:34.000Z,278.9